Time;durP1;ratioP1;P1;durP2;ratioP2;P2;SDS_P1;SDS_P2;PMS_P1;PMS_P2;Temp;Humidity;BMP_temperature;BMP_pressure;BME280_temperature;BME280_humidity;BME280_pressure;Samples;Min_cycle;Max_cycle;Signal;HPM_P1;HPM_P2
2022/11/03 10:23:11;;;;;;;4.28;2.40;;;;;;;1.53;72.57;99566.03;5065912;28;20412;-52
2022/11/03 10:25:38;;;;;;;5.57;2.05;;;;;;;1.58;75.04;99561.78;5081525;28;20401;-54
2022/11/03 10:28:20;;;;;;;6.22;2.50;;;;;;;1.73;76.63;99556.63;5065111;28;20095;-53
2022/11/03 10:31:07;;;;;;;4.13;2.15;;;;;;;1.84;77.57;99549.78;5066410;28;20044;-49
2022/11/03 10:33:39;;;;;;;6.40;2.22;;;;;;;1.95;77.49;99557.47;5066192;28;20045;-47
2022/11/03 10:36:14;;;;;;;7.30;3.30;;;;;;;2.03;77.81;99554.03;5065983;28;20082;-47
2022/11/03 10:38:40;;;;;;;3.15;2.40;;;;;;;2.12;77.34;99556.56;5065932;28;20067;-54
2022/11/03 10:41:14;;;;;;;7.60;2.80;;;;;;;2.19;76.90;99561.69;5066097;28;20037;-51
2022/11/03 10:43:42;;;;;;;14.52;7.07;;;;;;;2.24;76.33;99560.81;5064555;28;20892;-49
2022/11/03 10:46:15;;;;;;;8.65;3.00;;;;;;;2.29;76.09;99550.56;5048058;28;20496;-51
2022/11/03 10:48:41;;;;;;;5.43;2.80;;;;;;;2.39;75.59;99550.50;5064606;28;20037;-48
2022/11/03 10:51:11;;;;;;;12.65;2.70;;;;;;;2.44;75.07;99555.63;5065943;28;20047;-48
2022/11/03 10:53:38;;;;;;;5.05;3.00;;;;;;;2.50;74.78;99555.59;5065849;28;20037;-53
2022/11/03 10:56:04;;;;;;;7.25;3.45;;;;;;;2.52;74.22;99562.41;5064337;28;20511;-48
2022/11/03 10:58:30;;;;;;;10.57;2.80;;;;;;;2.53;73.77;99551.31;5064591;28;20083;-48
2022/11/03 11:00:56;;;;;;;9.55;3.05;;;;;;;2.40;73.67;99524.00;5065914;28;20044;-48
2022/11/03 11:03:22;;;;;;;4.20;2.75;;;;;;;2.64;73.12;99545.25;5065469;28;20598;-51
2022/11/03 11:05:48;;;;;;;4.75;3.08;;;;;;;2.67;72.98;99552.97;5065379;28;20047;-51
2022/11/03 11:08:17;;;;;;;4.30;3.00;;;;;;;2.67;72.47;99543.53;5063837;28;20431;-50
2022/11/03 11:10:43;;;;;;;;;;;;;;;2.66;72.15;99557.25;5065099;28;20159;-47
2022/11/03 11:13:18;;;;;;;4.85;2.95;;;;;;;2.59;72.23;99554.69;5061461;28;20015;-50
2022/11/03 11:15:57;;;;;;;7.97;3.33;;;;;;;2.43;71.83;99521.41;5064595;28;20043;-46
2022/11/03 11:18:26;;;;;;;7.00;3.10;;;;;;;2.59;71.63;99542.72;5065276;28;20044;-53
2022/11/03 11:20:52;;;;;;;6.78;2.80;;;;;;;2.61;71.64;99546.16;5064920;28;20044;-53
2022/11/03 11:23:28;;;;;;;9.55;3.63;;;;;;;2.62;71.13;99544.44;5065153;28;20037;-50
2022/11/03 11:26:09;;;;;;;4.93;3.40;;;;;;;2.63;71.23;99551.25;5064748;28;20036;-53
2022/11/03 11:28:42;;;;;;;5.28;2.95;;;;;;;2.65;71.18;99549.53;5064881;28;20516;-48
2022/11/03 11:31:26;;;;;;;7.60;3.63;;;;;;;2.66;70.91;99551.25;5065178;28;20071;-52
2022/11/03 11:34:17;;;;;;;9.13;4.00;;;;;;;2.68;70.99;99546.94;5055463;28;20037;-50
2022/11/03 11:37:03;;;;;;;10.35;4.57;;;;;;;2.70;70.82;99546.09;5050604;28;20105;-52
2022/11/03 11:39:30;;;;;;;5.50;3.55;;;;;;;2.69;70.86;99548.66;5051584;28;20151;-49
2022/11/03 11:42:13;;;;;;;11.65;4.47;;;;;;;2.69;70.54;99548.66;5046768;28;20042;-50
2022/11/03 11:44:41;;;;;;;12.82;4.30;;;;;;;2.66;70.64;99544.41;5031629;28;20044;-51
2022/11/03 11:47:25;;;;;;;8.68;4.88;;;;;;;2.66;70.59;99551.25;5031702;28;20045;-50
2022/11/03 11:50:09;;;;;;;14.95;4.32;;;;;;;2.64;70.51;99552.97;5031540;28;20124;-55
2022/11/03 11:52:43;;;;;;;7.75;4.30;;;;;;;2.36;70.63;99503.47;5046893;28;20045;-51
2022/11/03 11:55:24;;;;;;;8.77;3.72;;;;;;;2.60;70.36;99548.72;5031653;28;20041;-50
2022/11/03 11:57:51;;;;;;;14.40;6.57;;;;;;;2.53;70.29;99551.31;5051203;28;20041;-50
2022/11/03 12:00:25;;;;;;;5.65;3.55;;;;;;;2.48;70.50;99545.34;5049157;28;20098;-50
2022/11/03 12:02:51;;;;;;;8.10;4.45;;;;;;;2.46;70.34;99551.34;5068049;28;20521;-48
2022/11/03 12:05:20;;;;;;;8.10;4.15;;;;;;;2.41;70.42;99559.03;5049107;28;20440;-48
2022/11/03 12:07:45;;;;;;;8.93;4.35;;;;;;;2.39;70.28;99558.22;5047065;28;20478;-49
2022/11/03 12:10:16;;;;;;;8.23;4.28;;;;;;;2.33;70.44;99552.25;5047099;28;20037;-46
2022/11/03 12:12:42;;;;;;;8.77;4.57;;;;;;;2.39;70.65;99555.66;5049990;28;20102;-49
2022/11/03 12:15:46;;;;;;;11.25;4.82;;;;;;;2.39;70.47;99560.78;5045998;28;20064;-49
2022/11/03 12:18:27;;;;;;;7.90;4.82;;;;;;;2.21;70.15;99532.59;5034867;28;20042;-50
2022/11/03 12:20:53;;;;;;;11.73;4.15;;;;;;;2.34;70.34;99559.09;5030900;28;20644;-48
2022/11/03 12:23:42;;;;;;;22.40;4.85;;;;;;;2.18;70.37;99514.69;5046469;28;20528;-52
2022/11/03 12:26:40;;;;;;;11.25;4.60;;;;;;;2.32;70.48;99545.41;5044155;28;20049;-49
2022/11/03 12:29:07;;;;;;;12.63;4.50;;;;;;;2.22;70.63;99525.78;5049730;28;20051;-50
2022/11/03 12:31:33;;;;;;;27.05;12.93;;;;;;;2.36;70.56;99552.22;5050627;28;20066;-49
2022/11/03 12:33:58;;;;;;;8.85;5.13;;;;;;;2.18;70.33;99514.69;5050654;28;20516;-45
2022/11/03 12:36:24;;;;;;;14.68;5.03;;;;;;;2.40;70.49;99547.09;5065980;28;20064;-50
2022/11/03 12:38:51;;;;;;;10.00;4.90;;;;;;;2.40;70.55;99549.66;5049312;28;20471;-48
2022/11/03 12:41:20;;;;;;;20.13;5.95;;;;;;;2.18;70.56;99503.56;5050645;28;20061;-48
2022/11/03 12:43:47;;;;;;;18.37;5.83;;;;;;;2.40;70.55;99552.22;5050776;28;20045;-47
2022/11/03 12:46:15;;;;;;;8.57;4.35;;;;;;;2.36;70.26;99552.22;5048884;28;20291;-49
2022/11/03 12:48:42;;;;;;;8.48;3.92;;;;;;;2.33;70.61;99558.22;5049975;28;20041;-52
2022/11/03 12:51:22;;;;;;;6.93;3.92;;;;;;;2.13;70.50;99529.22;5048466;28;20029;-51
2022/11/03 12:53:49;;;;;;;7.53;4.07;;;;;;;2.26;70.12;99553.09;5015317;28;20041;-46
2022/11/03 12:56:15;;;;;;;13.43;4.18;;;;;;;2.24;70.35;99552.28;5050428;28;20047;-48
2022/11/03 12:58:41;;;;;;;8.35;3.90;;;;;;;2.23;70.35;99560.81;5050075;28;20566;-46
2022/11/03 13:01:07;;;;;;;9.93;4.15;;;;;;;2.07;69.98;99534.38;5050025;28;20044;-52
2022/11/03 13:03:34;;;;;;;14.30;4.07;;;;;;;2.22;70.27;99567.66;5049877;28;20634;-52
2022/11/03 13:06:03;;;;;;;9.70;4.22;;;;;;;2.19;70.36;99557.44;5050232;28;20048;-51
2022/11/03 13:08:32;;;;;;;6.70;4.07;;;;;;;2.18;70.66;99554.84;5032593;28;20049;-53
2022/11/03 13:10:57;;;;;;;13.63;4.50;;;;;;;2.17;70.35;99561.69;5048911;28;20075;-48
2022/11/03 13:13:24;;;;;;;10.48;4.22;;;;;;;2.15;70.33;99552.31;5040383;28;20119;-51
2022/11/03 13:15:49;;;;;;;11.20;3.63;;;;;;;2.12;70.43;99554.00;5002564;28;20037;-50
2022/11/03 13:18:15;;;;;;;11.35;3.70;;;;;;;2.13;70.68;99553.16;5049944;28;20036;-48
2022/11/03 13:20:43;;;;;;;10.60;4.55;;;;;;;2.07;70.31;99545.47;5050059;28;20037;-46
2022/11/03 13:23:09;;;;;;;5.82;3.70;;;;;;;2.06;70.59;99551.47;5049992;28;20580;-49
2022/11/03 13:25:35;;;;;;;8.00;4.20;;;;;;;1.93;70.37;99534.41;5049895;28;20132;-46
2022/11/03 13:28:02;;;;;;;8.18;3.42;;;;;;;2.08;70.24;99559.16;5049705;28;20045;-46
2022/11/03 13:30:29;;;;;;;9.88;3.33;;;;;;;2.05;70.60;99559.16;5031868;28;20087;-51
2022/11/03 13:32:55;;;;;;;4.70;2.65;;;;;;;2.03;70.42;99559.16;5049341;28;20064;-48
2022/11/03 13:35:21;;;;;;;8.55;2.83;;;;;;;1.83;70.18;99530.16;5031441;28;20056;-47
2022/11/03 13:37:47;;;;;;;7.97;3.20;;;;;;;2.03;70.00;99564.31;5048376;28;20041;-52
2022/11/03 13:40:14;;;;;;;6.68;2.78;;;;;;;1.72;70.20;99519.06;5049406;28;20037;-47
2022/11/03 13:42:40;;;;;;;12.60;3.10;;;;;;;1.92;70.02;99557.47;5049112;28;20128;-48
2022/11/03 13:45:07;;;;;;;6.75;3.13;;;;;;;2.02;69.93;99572.84;5047326;28;20032;-49
2022/11/03 13:47:33;;;;;;;3.78;2.58;;;;;;;2.00;69.84;99573.69;5048539;28;20436;-50
2022/11/03 13:49:59;;;;;;;5.30;2.50;;;;;;;2.02;69.91;99571.97;5048113;28;20047;-51
2022/11/03 13:52:26;;;;;;;9.10;2.45;;;;;;;1.74;69.60;99537.00;5049040;28;20035;-49
2022/11/03 13:54:53;;;;;;;3.38;2.35;;;;;;;1.94;69.38;99573.69;5048944;28;20920;-46
2022/11/03 13:57:19;;;;;;;6.13;2.80;;;;;;;1.93;69.92;99570.31;5047480;28;20512;-49
2022/11/03 13:59:44;;;;;;;4.30;2.40;;;;;;;1.94;69.56;99576.25;5048523;28;20044;-50
2022/11/03 14:02:11;;;;;;;5.55;2.90;;;;;;;1.81;69.72;99556.63;5048262;28;20045;-52
2022/11/03 14:04:37;;;;;;;10.10;2.83;;;;;;;1.92;69.45;99576.28;5049032;28;20512;-46
2022/11/03 14:07:04;;;;;;;7.65;2.92;;;;;;;1.89;70.04;99570.28;5049255;28;20128;-47
2022/11/03 14:09:30;;;;;;;11.55;3.60;;;;;;;1.89;69.66;99576.25;5047922;28;20577;-49
2022/11/03 14:14:41;;;;;;;4.28;2.58;;;;;;;1.87;69.64;99574.56;5029118;28;20456;-49
2022/11/03 14:17:07;;;;;;;5.55;2.72;;;;;;;1.85;69.61;99573.72;5029067;28;20037;-47
2022/11/03 14:19:33;;;;;;;8.77;2.90;;;;;;;1.83;69.59;99575.44;5027982;28;20041;-49
2022/11/03 14:21:59;;;;;;;5.57;2.80;;;;;;;1.86;69.54;99578.00;5028973;28;20137;-49
2022/11/03 14:24:25;;;;;;;6.55;2.80;;;;;;;1.74;69.89;99554.94;5044247;28;20132;-49
2022/11/03 14:26:51;;;;;;;9.60;2.53;;;;;;;1.83;69.89;99576.31;4994949;28;20049;-50
2022/11/03 14:29:17;;;;;;;6.78;2.80;;;;;;;1.83;69.99;99573.72;5028101;28;20041;-49
2022/11/03 14:31:43;;;;;;;8.18;3.45;;;;;;;1.84;69.60;99583.09;5029268;28;20041;-49
2022/11/03 14:34:09;;;;;;;10.57;3.65;;;;;;;1.85;69.71;99574.56;5028996;28;20037;-47
2022/11/03 14:36:35;;;;;;;6.38;3.40;;;;;;;1.85;69.57;99576.28;5040974;28;20029;-48
2022/11/03 14:39:01;;;;;;;8.55;3.13;;;;;;;1.86;69.71;99566.03;5035137;28;20048;-49
2022/11/03 14:44:11;;;;;;;11.13;2.95;;;;;;;1.85;70.03;99577.13;5048303;28;20048;-49
2022/11/03 14:46:36;;;;;;;8.20;2.80;;;;;;;1.54;70.02;99521.63;5030189;28;20044;-49
2022/11/03 14:49:03;;;;;;;7.47;4.00;;;;;;;1.86;69.92;99572.84;5048580;28;20045;-47
2022/11/03 14:51:29;;;;;;;10.40;3.40;;;;;;;1.87;69.75;99577.13;5048745;28;20029;-49
2022/11/03 14:53:56;;;;;;;9.45;3.33;;;;;;;1.88;69.56;99579.72;5048586;28;20055;-50
2022/11/03 14:56:23;;;;;;;9.68;3.78;;;;;;;1.88;69.95;99582.28;5048470;28;20063;-53
2022/11/03 14:58:49;;;;;;;10.07;3.35;;;;;;;1.88;69.77;99582.28;5048683;28;20041;-46
2022/11/03 15:01:18;;;;;;;12.15;3.20;;;;;;;1.86;70.18;99583.13;5046972;28;20543;-48
2022/11/03 15:03:44;;;;;;;;;;;;;;;1.88;70.15;99578.84;5048244;28;20543;-47
2022/11/03 15:06:11;;;;;;;7.63;3.25;;;;;;;1.83;69.76;99583.13;5047935;28;19917;-51
2022/11/03 15:08:37;;;;;;;5.25;2.63;;;;;;;1.81;70.18;99588.25;5049181;28;20534;-48
2022/11/03 15:11:06;;;;;;;8.43;3.42;;;;;;;1.78;69.75;99589.97;5032362;28;20397;-49
2022/11/03 15:13:32;;;;;;;6.30;3.08;;;;;;;1.76;69.76;99587.41;5032347;28;20471;-46
2022/11/03 15:15:58;;;;;;;11.45;2.92;;;;;;;1.75;69.68;99588.25;5032324;28;20544;-54
2022/11/03 15:18:24;;;;;;;11.40;3.30;;;;;;;1.73;69.59;99586.56;5038781;28;20072;-49
2022/11/03 15:20:50;;;;;;;5.47;3.40;;;;;;;1.66;69.59;99585.69;5039491;28;20128;-54
2022/11/03 15:23:16;;;;;;;6.65;3.20;;;;;;;1.47;69.59;99550.66;5051965;28;20037;-53
2022/11/03 15:25:42;;;;;;;9.07;3.85;;;;;;;1.67;69.86;99589.97;5037868;28;20084;-49
2022/11/03 15:28:08;;;;;;;9.23;4.22;;;;;;;1.69;69.57;99590.81;5036116;28;20815;-52
2022/11/03 15:30:34;;;;;;;9.98;4.60;;;;;;;1.70;69.84;99587.41;5028320;28;20504;-50
2022/11/03 15:33:00;;;;;;;9.85;4.45;;;;;;;1.71;69.64;99594.22;5042428;28;20047;-47
2022/11/03 15:35:25;;;;;;;17.35;5.13;;;;;;;1.72;69.80;99593.38;5038339;28;20041;-47
2022/11/03 15:37:52;;;;;;;11.43;4.50;;;;;;;1.57;69.84;99563.47;5030099;28;20056;-51
2022/11/03 15:40:18;;;;;;;10.05;4.40;;;;;;;1.76;70.00;99592.53;5044990;28;20531;-45
2022/11/03 15:42:44;;;;;;;11.45;4.70;;;;;;;1.76;70.09;99584.84;5050840;28;20519;-52
2022/11/03 15:45:12;;;;;;;10.63;5.22;;;;;;;1.78;70.08;99589.97;5051858;28;20053;-47
2022/11/03 15:47:38;;;;;;;9.13;4.53;;;;;;;1.48;70.16;99534.44;5051775;28;20154;-47
2022/11/03 15:50:05;;;;;;;11.02;4.57;;;;;;;1.51;69.93;99537.88;5051454;28;20103;-45
2022/11/03 15:52:31;;;;;;;7.00;4.28;;;;;;;1.81;70.00;99583.13;5050372;28;20064;-46
2022/11/03 15:54:57;;;;;;;14.48;4.15;;;;;;;1.81;70.17;99592.53;5051467;28;20048;-48
2022/11/03 15:57:23;;;;;;;11.00;4.82;;;;;;;1.79;69.86;99584.81;5051302;28;20041;-46
2022/11/03 15:59:49;;;;;;;11.93;5.10;;;;;;;1.80;69.84;99583.13;5051235;28;20043;-49
2022/11/03 16:02:15;;;;;;;11.27;4.80;;;;;;;1.80;70.08;99590.81;5049812;28;20492;-48
2022/11/03 16:04:41;;;;;;;9.52;4.22;;;;;;;1.82;70.19;99587.41;5049636;28;20044;-50
2022/11/03 16:07:07;;;;;;;6.70;4.10;;;;;;;1.78;69.74;99583.09;5050289;28;20131;-49
2022/11/03 16:09:33;;;;;;;9.77;4.38;;;;;;;1.75;69.80;99582.25;5050949;28;20131;-49
2022/11/03 16:11:59;;;;;;;10.85;4.85;;;;;;;1.61;69.88;99557.53;5049932;28;20062;-47
2022/11/03 16:14:25;;;;;;;9.13;4.28;;;;;;;1.71;70.01;99581.41;5025976;28;20033;-53
2022/11/03 16:16:51;;;;;;;9.80;5.15;;;;;;;1.75;69.83;99585.69;5049857;28;20151;-48
2022/11/03 16:19:16;;;;;;;10.20;4.85;;;;;;;1.76;69.97;99583.97;5051134;28;20040;-50
2022/11/03 16:21:42;;;;;;;11.52;4.28;;;;;;;1.78;69.98;99577.97;5049301;28;20057;-48
2022/11/03 16:24:08;;;;;;;6.97;4.00;;;;;;;1.78;70.17;99587.41;5049140;28;20049;-50
2022/11/03 16:26:34;;;;;;;11.07;4.53;;;;;;;1.60;69.87;99557.50;5049571;28;20037;-54
2022/11/03 16:29:00;;;;;;;12.32;4.45;;;;;;;1.75;70.01;99578.00;5049456;28;20533;-51
2022/11/03 16:31:27;;;;;;;11.07;4.40;;;;;;;1.73;70.19;99584.81;5050995;28;20040;-47
2022/11/03 16:33:53;;;;;;;8.30;4.63;;;;;;;1.76;69.98;99586.53;5032404;28;20094;-48
2022/11/03 16:36:19;;;;;;;11.00;4.72;;;;;;;1.75;70.14;99584.81;5049375;28;20064;-47
2022/11/03 16:38:45;;;;;;;8.00;4.22;;;;;;;1.73;70.38;99587.38;5048688;28;20040;-47
2022/11/03 16:41:11;;;;;;;8.43;4.50;;;;;;;1.56;70.14;99561.78;5050115;28;20041;-49
2022/11/03 16:43:37;;;;;;;8.77;4.18;;;;;;;1.69;70.39;99594.22;5047515;28;20585;-49
2022/11/03 16:46:03;;;;;;;12.70;4.80;;;;;;;1.70;70.22;99595.09;5050008;28;20083;-49
2022/11/03 16:48:29;;;;;;;7.93;4.15;;;;;;;1.72;70.43;99588.25;5048908;28;20044;-53
2022/11/03 16:50:56;;;;;;;8.82;4.15;;;;;;;1.63;70.43;99580.56;5031311;28;20041;-50
2022/11/03 16:53:23;;;;;;;9.23;3.85;;;;;;;1.73;70.75;99586.56;5049353;28;20692;-50
2022/11/03 16:55:49;;;;;;;8.68;4.10;;;;;;;1.70;70.62;99588.25;5050733;28;20037;-50
2022/11/03 16:58:15;;;;;;;9.75;3.95;;;;;;;1.69;70.61;99589.09;5050292;28;20048;-52
2022/11/03 17:00:41;;;;;;;11.32;4.53;;;;;;;1.55;70.62;99566.91;5047946;28;20462;-53
2022/11/03 17:03:08;;;;;;;11.40;4.03;;;;;;;1.70;70.36;99593.38;5049100;28;20045;-53
2022/11/03 17:05:34;;;;;;;6.72;3.83;;;;;;;1.69;70.62;99598.50;5048374;28;20539;-52
2022/11/03 17:08:00;;;;;;;7.28;4.63;;;;;;;1.65;70.77;99589.09;5039125;28;20048;-50
2022/11/03 17:10:27;;;;;;;6.25;3.20;;;;;;;1.69;70.81;99598.50;5029375;28;20044;-49
2022/11/03 17:12:53;;;;;;;7.68;3.63;;;;;;;1.69;70.56;99593.38;5044712;28;20523;-50
2022/11/03 17:15:19;;;;;;;9.00;3.85;;;;;;;1.55;70.64;99575.44;5050670;28;20037;-49
2022/11/03 17:17:45;;;;;;;6.30;3.63;;;;;;;1.68;70.81;99600.19;5048430;28;20045;-51
2022/11/03 17:20:11;;;;;;;6.00;3.40;;;;;;;1.69;70.88;99593.38;5049487;28;20420;-47
2022/11/03 17:22:37;;;;;;;6.45;3.92;;;;;;;1.70;70.72;99592.53;5049300;28;20588;-49
2022/11/03 17:25:04;;;;;;;5.25;4.22;;;;;;;1.72;70.33;99584.84;5049494;28;20037;-52
2022/11/03 17:27:38;;;;;;;6.70;3.63;;;;;;;1.70;70.65;99589.97;5049271;28;20079;-49
2022/11/03 17:30:07;;;;;;;9.02;4.03;;;;;;;1.70;70.71;99585.69;5048424;28;20041;-47
2022/11/03 17:32:38;;;;;;;9.30;3.55;;;;;;;1.70;70.68;99592.53;5047644;28;20045;-50
2022/11/03 17:35:20;;;;;;;9.63;3.53;;;;;;;1.66;70.37;99585.69;5049605;28;20052;-54
2022/11/03 17:37:47;;;;;;;4.50;3.40;;;;;;;1.63;70.34;99586.53;5049735;28;20041;-48
2022/11/03 17:40:19;;;;;;;6.57;3.40;;;;;;;1.62;70.62;99589.13;5049304;28;20040;-48
2022/11/03 17:42:45;;;;;;;6.22;3.80;;;;;;;1.59;70.44;99587.41;5048037;28;20047;-48
2022/11/03 17:45:13;;;;;;;5.40;3.75;;;;;;;1.56;70.70;99582.28;5048121;28;20044;-49
2022/11/03 17:47:39;;;;;;;8.55;4.25;;;;;;;1.58;70.49;99593.38;5047914;28;20041;-46
2022/11/03 17:50:06;;;;;;;6.65;4.07;;;;;;;1.43;70.26;99569.44;5049171;28;20032;-47
2022/11/03 17:52:32;;;;;;;12.68;4.18;;;;;;;1.62;70.13;99595.06;5047551;28;20091;-48
2022/11/03 17:54:59;;;;;;;8.30;3.88;;;;;;;1.61;70.32;99598.50;5047919;28;20051;-50
2022/11/03 17:57:25;;;;;;;9.10;4.07;;;;;;;1.32;70.34;99545.53;5047004;28;20037;-47
2022/11/03 17:59:52;;;;;;;5.10;3.45;;;;;;;1.58;70.30;99585.69;5046833;28;20512;-51
2022/11/03 18:02:30;;;;;;;6.45;3.67;;;;;;;1.52;70.20;99590.81;5048301;28;20041;-47
2022/11/03 18:05:25;;;;;;;5.00;2.92;;;;;;;1.52;70.42;99587.38;5047673;28;20041;-52
2022/11/03 18:07:53;;;;;;;8.20;3.80;;;;;;;1.54;70.43;99583.13;5041458;28;20110;-50
2022/11/03 18:10:21;;;;;;;12.05;3.60;;;;;;;1.54;70.27;99585.69;5030336;28;20056;-48
2022/11/03 18:15:35;;;;;;;4.28;3.38;;;;;;;1.52;70.12;99590.81;5036241;28;20074;-56
2022/11/03 18:18:10;;;;;;;16.67;4.75;;;;;;;1.53;70.47;99591.66;5049064;28;20040;-50
2022/11/03 18:20:36;;;;;;;9.55;4.47;;;;;;;1.54;70.51;99588.25;5047517;28;20503;-49
2022/11/03 18:23:21;;;;;;;5.75;3.60;;;;;;;1.59;70.23;99589.09;5047420;28;20055;-52
2022/11/03 18:25:48;;;;;;;7.43;4.80;;;;;;;1.59;70.43;99589.97;5048943;28;20040;-52
2022/11/03 18:28:14;;;;;;;8.68;4.90;;;;;;;1.60;70.52;99590.81;5048842;28;20499;-51
2022/11/03 18:30:42;;;;;;;6.35;3.60;;;;;;;1.60;70.31;99589.09;5048795;28;20037;-49
2022/11/03 18:33:24;;;;;;;11.35;3.83;;;;;;;1.64;70.24;99588.25;5048482;28;20134;-48
2022/11/03 18:35:50;;;;;;;6.97;3.78;;;;;;;1.63;70.40;99590.81;5047598;28;20048;-49
2022/11/03 18:38:16;;;;;;;6.38;4.05;;;;;;;1.66;70.37;99588.25;5046877;28;20098;-55
2022/11/03 18:40:43;;;;;;;6.63;3.90;;;;;;;1.67;70.30;99587.41;5048186;28;20040;-55
2022/11/03 18:43:17;;;;;;;6.93;3.67;;;;;;;1.66;70.16;99591.69;5031475;28;20041;-49
2022/11/03 18:45:44;;;;;;;9.48;3.38;;;;;;;1.66;70.39;99588.25;5047191;28;20049;-49
2022/11/03 18:48:17;;;;;;;8.82;3.92;;;;;;;1.65;70.30;99589.97;5052147;28;20041;-51
2022/11/03 18:50:45;;;;;;;8.82;3.78;;;;;;;1.49;70.51;99557.50;5050753;28;20045;-52
2022/11/03 18:53:12;;;;;;;5.45;3.63;;;;;;;1.63;70.58;99591.66;5050967;28;20175;-48
2022/11/03 18:55:39;;;;;;;6.80;4.32;;;;;;;1.63;70.45;99586.53;5051938;28;20041;-51
2022/11/03 18:58:05;;;;;;;8.73;5.32;;;;;;;1.62;70.26;99587.38;5049295;28;20045;-49
2022/11/03 19:00:30;;;;;;;10.02;5.10;;;;;;;1.60;70.87;99588.25;5050648;28;20238;-46
2022/11/03 19:02:56;;;;;;;8.23;4.78;;;;;;;1.57;70.35;99581.41;5051908;28;20044;-50
2022/11/03 19:05:22;;;;;;;9.60;4.55;;;;;;;1.44;70.55;99560.91;5051740;28;20625;-48
2022/11/03 19:07:49;;;;;;;14.13;4.53;;;;;;;1.61;70.58;99577.16;5052029;28;20036;-49
2022/11/03 19:10:21;;;;;;;9.52;5.10;;;;;;;1.35;70.62;99533.63;5050901;28;20135;-49
2022/11/03 19:12:47;;;;;;;15.77;5.78;;;;;;;1.50;70.88;99571.19;5034367;28;20033;-48
2022/11/03 19:15:23;;;;;;;11.77;5.03;;;;;;;1.49;70.90;99574.59;5033633;28;20040;-47
2022/11/03 19:17:51;;;;;;;8.68;5.07;;;;;;;1.50;71.15;99576.31;5049254;28;20177;-51
2022/11/03 19:20:17;;;;;;;10.07;5.47;;;;;;;1.49;71.16;99575.44;5050728;28;20500;-47
2022/11/03 19:22:44;;;;;;;7.50;4.57;;;;;;;1.50;70.91;99571.19;5051437;28;20064;-46
2022/11/03 19:25:10;;;;;;;12.10;4.60;;;;;;;1.36;71.15;99544.72;5051155;28;20047;-53
2022/11/03 19:27:39;;;;;;;9.82;4.68;;;;;;;1.47;70.89;99566.03;5052317;28;20045;-50
2022/11/03 19:30:05;;;;;;;13.95;5.05;;;;;;;1.48;71.46;99567.75;5031572;28;20540;-52
2022/11/03 19:32:36;;;;;;;11.82;5.40;;;;;;;1.44;71.35;99564.34;5033929;28;20099;-48
2022/11/03 19:35:05;;;;;;;10.52;5.30;;;;;;;1.44;71.16;99571.16;5050868;28;20044;-49
2022/11/03 19:37:31;;;;;;;11.00;5.22;;;;;;;1.41;71.05;99569.47;5046309;28;20041;-48
2022/11/03 19:39:58;;;;;;;10.68;5.40;;;;;;;1.41;71.45;99574.59;5049844;28;20365;-50
2022/11/03 19:42:27;;;;;;;9.57;4.63;;;;;;;1.36;71.58;99570.31;5049606;28;20131;-48
2022/11/03 19:45:00;;;;;;;8.80;4.97;;;;;;;1.34;71.67;99569.47;5051363;28;20186;-50
2022/11/03 19:47:28;;;;;;;9.43;5.07;;;;;;;1.30;71.69;99565.19;5048142;28;20067;-55
2022/11/03 19:49:54;;;;;;;7.80;4.55;;;;;;;1.11;71.64;99534.44;5033151;28;20044;-52
2022/11/03 19:52:25;;;;;;;10.77;4.93;;;;;;;1.32;71.52;99566.88;5039772;28;20521;-54
2022/11/03 19:54:51;;;;;;;10.68;4.53;;;;;;;1.34;71.64;99567.75;5033242;28;20049;-47
2022/11/03 19:57:17;;;;;;;11.05;4.95;;;;;;;1.13;71.85;99542.97;5051383;28;20045;-47
2022/11/03 19:59:44;;;;;;;7.63;4.80;;;;;;;1.34;71.93;99578.00;5050194;28;20072;-47
2022/11/03 20:02:10;;;;;;;7.18;4.57;;;;;;;1.32;71.70;99574.56;5049197;28;20045;-54
2022/11/03 20:04:36;;;;;;;10.70;5.28;;;;;;;1.38;71.95;99568.59;5050477;28;20041;-49
2022/11/03 20:07:03;;;;;;;7.28;4.78;;;;;;;1.38;71.97;99563.47;5032711;28;20053;-51
2022/11/03 20:09:29;;;;;;;7.30;4.57;;;;;;;1.35;71.66;99559.22;5049605;28;20033;-48
2022/11/03 20:12:01;;;;;;;9.95;5.10;;;;;;;1.19;72.00;99539.59;5049137;28;20041;-56
2022/11/03 20:14:27;;;;;;;12.05;5.03;;;;;;;1.39;71.57;99565.19;5032671;28;20677;-51
2022/11/03 20:16:58;;;;;;;8.90;5.18;;;;;;;1.41;71.68;99563.50;5050197;28;20049;-51
2022/11/03 20:19:24;;;;;;;10.25;4.65;;;;;;;1.42;71.64;99560.06;5049163;28;20040;-49
2022/11/03 20:21:50;;;;;;;6.88;4.70;;;;;;;1.42;71.45;99555.78;5050512;28;20053;-51
2022/11/03 20:24:17;;;;;;;9.45;4.38;;;;;;;1.44;71.63;99566.03;5049051;28;20098;-54
2022/11/03 20:26:43;;;;;;;5.53;4.05;;;;;;;1.39;71.93;99565.19;5050117;28;20040;-50
2022/11/03 20:29:13;;;;;;;5.13;3.80;;;;;;;1.36;71.98;99566.03;5050103;28;20047;-50
2022/11/03 20:31:40;;;;;;;4.75;3.38;;;;;;;1.04;71.66;99514.81;5050737;28;20041;-51
2022/11/03 20:34:11;;;;;;;7.10;3.88;;;;;;;1.33;71.82;99558.34;5050106;28;20063;-56
2022/11/03 20:36:36;;;;;;;10.85;4.32;;;;;;;1.18;71.76;99546.41;5048836;28;20041;-50
2022/11/03 20:39:03;;;;;;;8.20;4.03;;;;;;;1.35;71.68;99566.91;5015572;28;20041;-49
2022/11/03 20:41:29;;;;;;;11.27;5.18;;;;;;;1.36;71.85;99562.66;5040930;28;20049;-54
2022/11/03 20:43:55;;;;;;;7.25;4.68;;;;;;;1.36;72.01;99563.47;5048199;28;20478;-49
2022/11/03 20:46:28;;;;;;;9.02;5.00;;;;;;;1.37;71.52;99557.50;5048186;28;20041;-51
2022/11/03 20:48:54;;;;;;;14.18;4.85;;;;;;;1.37;71.53;99552.38;5049754;28;20055;-47
2022/11/03 20:51:22;;;;;;;7.97;4.78;;;;;;;1.40;71.85;99554.97;5032090;28;20036;-50
2022/11/03 20:53:48;;;;;;;9.98;5.32;;;;;;;1.22;71.78;99524.19;5050402;28;20144;-47
2022/11/03 20:56:16;;;;;;;12.20;5.38;;;;;;;1.43;71.56;99557.50;5050157;28;20486;-49
2022/11/03 20:58:42;;;;;;;9.10;5.30;;;;;;;1.27;71.52;99532.75;5048107;28;20045;-50
2022/11/03 21:01:13;;;;;;;10.10;5.85;;;;;;;1.41;71.84;99560.94;5048665;28;20097;-52
2022/11/03 21:03:39;;;;;;;11.25;6.90;;;;;;;1.37;71.75;99554.94;5049624;28;20091;-49
2022/11/03 21:06:05;;;;;;;11.75;6.10;;;;;;;1.43;71.64;99560.06;5047605;28;20052;-54
2022/11/03 21:08:31;;;;;;;15.48;6.28;;;;;;;1.41;71.92;99561.78;5049660;28;20136;-49
2022/11/03 21:11:22;;;;;;;9.07;5.43;;;;;;;1.40;71.64;99560.09;5049798;28;20049;-49
2022/11/03 21:13:42;;;;;;;10.18;5.13;;;;;;;1.37;71.71;99559.19;5039282;28;20040;-52
2022/11/03 21:21:36;;;;;;;11.48;4.80;;;;;;;1.38;71.74;99566.03;5047693;28;20072;-53
2022/11/03 21:24:02;;;;;;;8.63;4.93;;;;;;;1.36;71.71;99557.53;5049664;28;20059;-52
2022/11/03 21:26:28;;;;;;;8.48;5.38;;;;;;;1.38;71.81;99558.34;5049511;28;20420;-51
2022/11/03 21:28:54;;;;;;;11.23;5.82;;;;;;;1.38;71.86;99559.22;5049633;28;20041;-54
2022/11/03 21:31:19;;;;;;;10.10;5.65;;;;;;;1.19;71.45;99525.06;5063565;28;20053;-46
2022/11/03 21:33:45;;;;;;;10.77;5.45;;;;;;;1.39;71.83;99555.81;5049952;28;20040;-50
2022/11/03 21:36:11;;;;;;;9.20;4.93;;;;;;;1.40;71.42;99546.41;5049938;28;20406;-48
2022/11/03 21:38:37;;;;;;;13.65;5.38;;;;;;;1.39;71.51;99554.94;5048759;28;20041;-50
2022/11/03 21:46:37;;;;;;;10.52;5.15;;;;;;;1.30;71.78;99557.50;5047995;28;20083;-51
2022/11/03 21:51:47;;;;;;;11.23;4.93;;;;;;;1.12;71.52;99528.47;5048104;28;20048;-53
2022/11/03 21:54:13;;;;;;;6.72;4.80;;;;;;;1.32;71.51;99560.91;5047793;28;20093;-51
2022/11/03 21:56:38;;;;;;;9.48;5.10;;;;;;;1.33;71.91;99560.06;5046795;28;20505;-49
2022/11/03 21:59:04;;;;;;;13.35;5.40;;;;;;;1.33;71.77;99550.69;5048227;28;20133;-50
2022/11/03 22:01:30;;;;;;;8.50;5.13;;;;;;;1.34;71.79;99551.53;5031229;28;20749;-47
2022/11/03 22:03:57;;;;;;;8.45;5.35;;;;;;;1.34;71.66;99548.97;5049419;28;20135;-47
2022/11/03 22:06:22;;;;;;;10.18;6.05;;;;;;;1.30;72.10;99555.81;5049454;28;20080;-51
2022/11/03 22:08:48;;;;;;;9.18;6.00;;;;;;;1.29;72.00;99554.09;5049310;28;20037;-49
2022/11/03 22:11:20;;;;;;;10.38;5.43;;;;;;;1.28;72.03;99552.38;5049137;28;20159;-51
2022/11/03 22:13:52;;;;;;;9.18;5.45;;;;;;;1.28;72.08;99555.81;5041398;28;20045;-49
2022/11/03 22:16:38;;;;;;;11.38;5.47;;;;;;;1.31;72.25;99557.50;5043137;28;20040;-50
2022/11/03 22:27:32;;;;;;;13.77;5.20;;;;;;;1.25;71.90;99544.72;5047814;28;20049;-52
2022/11/03 22:32:44;;;;;;;10.52;5.80;;;;;;;1.16;72.01;99540.41;5049048;28;20037;-46
2022/11/03 22:38:15;;;;;;;9.82;5.75;;;;;;;1.19;72.18;99534.47;5047464;28;20068;-50
2022/11/03 22:46:12;;;;;;;10.68;6.57;;;;;;;1.18;72.20;99543.00;5047738;28;20429;-51
2022/11/03 22:48:38;;;;;;;11.98;5.53;;;;;;;1.16;72.32;99537.84;5047790;28;20616;-49